sensor_id;sensor_type;location;lat;lon;timestamp;P1;durP1;ratioP1;P2;durP2;ratioP2
4867;SDS011;2448;48.086;10.862;2022-07-18T00:01:37;4.90;;;3.70;;
4867;SDS011;2448;48.086;10.862;2022-07-18T00:04:02;4.00;;;3.57;;
4867;SDS011;2448;48.086;10.862;2022-07-18T00:06:27;5.97;;;4.20;;
4867;SDS011;2448;48.086;10.862;2022-07-18T00:08:53;4.23;;;3.83;;
4867;SDS011;2448;48.086;10.862;2022-07-18T00:11:18;4.80;;;3.83;;
4867;SDS011;2448;48.086;10.862;2022-07-18T00:13:44;3.87;;;3.50;;
4867;SDS011;2448;48.086;10.862;2022-07-18T00:16:09;3.97;;;3.63;;
4867;SDS011;2448;48.086;10.862;2022-07-18T00:18:35;5.30;;;3.33;;
4867;SDS011;2448;48.086;10.862;2022-07-18T00:21:00;6.00;;;3.97;;
4867;SDS011;2448;48.086;10.862;2022-07-18T00:23:26;6.07;;;3.43;;
4867;SDS011;2448;48.086;10.862;2022-07-18T00:25:51;5.40;;;3.47;;
4867;SDS011;2448;48.086;10.862;2022-07-18T00:28:16;3.57;;;3.27;;
4867;SDS011;2448;48.086;10.862;2022-07-18T00:30:42;4.53;;;3.60;;
4867;SDS011;2448;48.086;10.862;2022-07-18T00:33:08;3.90;;;3.53;;
4867;SDS011;2448;48.086;10.862;2022-07-18T00:35:33;5.43;;;3.27;;
4867;SDS011;2448;48.086;10.862;2022-07-18T00:37:59;4.03;;;3.63;;
4867;SDS011;2448;48.086;10.862;2022-07-18T00:40:26;4.13;;;3.73;;
4867;SDS011;2448;48.086;10.862;2022-07-18T00:42:52;5.27;;;3.60;;
4867;SDS011;2448;48.086;10.862;2022-07-18T00:45:17;4.27;;;3.80;;
4867;SDS011;2448;48.086;10.862;2022-07-18T00:47:42;4.50;;;3.87;;
4867;SDS011;2448;48.086;10.862;2022-07-18T00:50:08;4.80;;;3.70;;
4867;SDS011;2448;48.086;10.862;2022-07-18T00:52:33;4.80;;;3.60;;
4867;SDS011;2448;48.086;10.862;2022-07-18T00:54:59;5.40;;;3.90;;
4867;SDS011;2448;48.086;10.862;2022-07-18T00:57:25;3.20;;;3.00;;
4867;SDS011;2448;48.086;10.862;2022-07-18T00:59:51;5.90;;;3.30;;
4867;SDS011;2448;48.086;10.862;2022-07-18T01:02:35;4.23;;;3.70;;
4867;SDS011;2448;48.086;10.862;2022-07-18T01:05:00;3.90;;;3.50;;
4867;SDS011;2448;48.086;10.862;2022-07-18T01:07:26;4.80;;;3.90;;
4867;SDS011;2448;48.086;10.862;2022-07-18T01:09:51;3.77;;;3.30;;
4867;SDS011;2448;48.086;10.862;2022-07-18T01:12:17;6.37;;;3.70;;
4867;SDS011;2448;48.086;10.862;2022-07-18T01:14:42;5.40;;;3.73;;
4867;SDS011;2448;48.086;10.862;2022-07-18T01:17:14;4.00;;;3.47;;
4867;SDS011;2448;48.086;10.862;2022-07-18T01:19:39;4.87;;;4.10;;
4867;SDS011;2448;48.086;10.862;2022-07-18T01:22:05;3.60;;;3.27;;
4867;SDS011;2448;48.086;10.862;2022-07-18T01:24:30;3.80;;;3.50;;
4867;SDS011;2448;48.086;10.862;2022-07-18T01:26:56;5.97;;;3.97;;
4867;SDS011;2448;48.086;10.862;2022-07-18T01:29:21;6.57;;;4.30;;
4867;SDS011;2448;48.086;10.862;2022-07-18T01:31:46;3.67;;;3.37;;
4867;SDS011;2448;48.086;10.862;2022-07-18T01:34:12;3.70;;;3.40;;
4867;SDS011;2448;48.086;10.862;2022-07-18T01:36:38;3.33;;;3.07;;
4867;SDS011;2448;48.086;10.862;2022-07-18T01:39:03;3.20;;;3.00;;
4867;SDS011;2448;48.086;10.862;2022-07-18T01:41:29;3.40;;;3.07;;
4867;SDS011;2448;48.086;10.862;2022-07-18T01:43:54;14.13;;;3.30;;
4867;SDS011;2448;48.086;10.862;2022-07-18T01:46:20;3.43;;;3.13;;
4867;SDS011;2448;48.086;10.862;2022-07-18T01:48:45;4.00;;;3.57;;
4867;SDS011;2448;48.086;10.862;2022-07-18T01:51:11;3.80;;;3.50;;
4867;SDS011;2448;48.086;10.862;2022-07-18T01:53:37;4.10;;;3.70;;
4867;SDS011;2448;48.086;10.862;2022-07-18T01:56:03;3.87;;;3.57;;
4867;SDS011;2448;48.086;10.862;2022-07-18T01:58:28;7.70;;;3.70;;
4867;SDS011;2448;48.086;10.862;2022-07-18T02:00:54;3.60;;;3.27;;
4867;SDS011;2448;48.086;10.862;2022-07-18T02:03:19;4.87;;;3.80;;
4867;SDS011;2448;48.086;10.862;2022-07-18T02:05:44;5.20;;;3.73;;
4867;SDS011;2448;48.086;10.862;2022-07-18T02:08:10;4.23;;;3.83;;
4867;SDS011;2448;48.086;10.862;2022-07-18T02:10:36;6.60;;;4.20;;
4867;SDS011;2448;48.086;10.862;2022-07-18T02:13:01;6.37;;;4.17;;
4867;SDS011;2448;48.086;10.862;2022-07-18T02:15:26;7.40;;;4.50;;
4867;SDS011;2448;48.086;10.862;2022-07-18T02:17:52;3.87;;;3.57;;
4867;SDS011;2448;48.086;10.862;2022-07-18T02:20:17;4.80;;;3.70;;
4867;SDS011;2448;48.086;10.862;2022-07-18T02:22:43;7.60;;;3.97;;
4867;SDS011;2448;48.086;10.862;2022-07-18T02:25:09;4.57;;;4.17;;
4867;SDS011;2448;48.086;10.862;2022-07-18T02:27:34;4.93;;;3.80;;
4867;SDS011;2448;48.086;10.862;2022-07-18T02:30:00;3.57;;;3.27;;
4867;SDS011;2448;48.086;10.862;2022-07-18T02:32:25;5.10;;;3.37;;
4867;SDS011;2448;48.086;10.862;2022-07-18T02:34:51;4.43;;;4.03;;
4867;SDS011;2448;48.086;10.862;2022-07-18T02:37:16;4.57;;;4.10;;
4867;SDS011;2448;48.086;10.862;2022-07-18T02:39:42;6.93;;;3.30;;
4867;SDS011;2448;48.086;10.862;2022-07-18T02:42:07;4.20;;;3.73;;
4867;SDS011;2448;48.086;10.862;2022-07-18T02:44:33;4.27;;;3.87;;
4867;SDS011;2448;48.086;10.862;2022-07-18T02:46:58;5.63;;;4.47;;
4867;SDS011;2448;48.086;10.862;2022-07-18T02:49:24;4.07;;;3.60;;
4867;SDS011;2448;48.086;10.862;2022-07-18T02:51:53;4.20;;;3.80;;
4867;SDS011;2448;48.086;10.862;2022-07-18T02:54:19;6.23;;;4.03;;
4867;SDS011;2448;48.086;10.862;2022-07-18T02:56:44;5.27;;;3.77;;
4867;SDS011;2448;48.086;10.862;2022-07-18T02:59:09;4.30;;;3.90;;
4867;SDS011;2448;48.086;10.862;2022-07-18T03:01:35;6.10;;;4.23;;
4867;SDS011;2448;48.086;10.862;2022-07-18T03:04:00;7.17;;;4.20;;
4867;SDS011;2448;48.086;10.862;2022-07-18T03:06:28;4.07;;;3.60;;
4867;SDS011;2448;48.086;10.862;2022-07-18T03:08:53;4.57;;;3.70;;
4867;SDS011;2448;48.086;10.862;2022-07-18T03:11:19;5.77;;;4.20;;
4867;SDS011;2448;48.086;10.862;2022-07-18T03:13:44;5.50;;;3.83;;
4867;SDS011;2448;48.086;10.862;2022-07-18T03:16:09;3.60;;;3.23;;
4867;SDS011;2448;48.086;10.862;2022-07-18T03:18:35;4.20;;;3.80;;
4867;SDS011;2448;48.086;10.862;2022-07-18T03:21:00;4.37;;;3.43;;
4867;SDS011;2448;48.086;10.862;2022-07-18T03:23:26;4.50;;;4.07;;
4867;SDS011;2448;48.086;10.862;2022-07-18T03:25:51;4.87;;;4.20;;
4867;SDS011;2448;48.086;10.862;2022-07-18T03:28:16;7.57;;;4.40;;
4867;SDS011;2448;48.086;10.862;2022-07-18T03:30:42;8.13;;;3.40;;
4867;SDS011;2448;48.086;10.862;2022-07-18T03:33:07;4.30;;;3.90;;
4867;SDS011;2448;48.086;10.862;2022-07-18T03:35:33;5.47;;;3.97;;
4867;SDS011;2448;48.086;10.862;2022-07-18T03:37:58;4.90;;;3.90;;
4867;SDS011;2448;48.086;10.862;2022-07-18T03:40:23;6.27;;;4.63;;
4867;SDS011;2448;48.086;10.862;2022-07-18T03:42:49;7.77;;;4.60;;
4867;SDS011;2448;48.086;10.862;2022-07-18T03:45:14;5.57;;;3.80;;
4867;SDS011;2448;48.086;10.862;2022-07-18T03:47:40;4.67;;;3.90;;
4867;SDS011;2448;48.086;10.862;2022-07-18T03:50:05;6.17;;;4.30;;
4867;SDS011;2448;48.086;10.862;2022-07-18T03:52:31;8.73;;;4.20;;
4867;SDS011;2448;48.086;10.862;2022-07-18T03:54:56;4.93;;;4.17;;
4867;SDS011;2448;48.086;10.862;2022-07-18T03:57:21;4.78;;;4.25;;
4867;SDS011;2448;48.086;10.862;2022-07-18T03:59:47;3.70;;;3.33;;
4867;SDS011;2448;48.086;10.862;2022-07-18T04:02:12;6.60;;;4.07;;
4867;SDS011;2448;48.086;10.862;2022-07-18T04:04:38;4.60;;;4.13;;
4867;SDS011;2448;48.086;10.862;2022-07-18T04:07:03;8.37;;;4.10;;
4867;SDS011;2448;48.086;10.862;2022-07-18T04:09:28;4.53;;;4.10;;
4867;SDS011;2448;48.086;10.862;2022-07-18T04:11:54;7.87;;;4.40;;
4867;SDS011;2448;48.086;10.862;2022-07-18T04:14:19;14.33;;;5.40;;
4867;SDS011;2448;48.086;10.862;2022-07-18T04:16:47;5.17;;;4.27;;
4867;SDS011;2448;48.086;10.862;2022-07-18T04:19:13;6.70;;;4.57;;
4867;SDS011;2448;48.086;10.862;2022-07-18T04:21:38;5.30;;;4.30;;
4867;SDS011;2448;48.086;10.862;2022-07-18T04:24:04;13.10;;;4.63;;
4867;SDS011;2448;48.086;10.862;2022-07-18T04:26:29;5.00;;;4.50;;
4867;SDS011;2448;48.086;10.862;2022-07-18T04:28:55;4.17;;;3.73;;
4867;SDS011;2448;48.086;10.862;2022-07-18T04:31:20;5.10;;;4.27;;
4867;SDS011;2448;48.086;10.862;2022-07-18T04:33:45;4.97;;;4.27;;
4867;SDS011;2448;48.086;10.862;2022-07-18T04:36:11;6.60;;;4.60;;
4867;SDS011;2448;48.086;10.862;2022-07-18T04:38:36;10.73;;;4.30;;
4867;SDS011;2448;48.086;10.862;2022-07-18T04:41:05;5.73;;;4.27;;
4867;SDS011;2448;48.086;10.862;2022-07-18T04:43:30;6.10;;;4.73;;
4867;SDS011;2448;48.086;10.862;2022-07-18T04:45:56;6.60;;;5.07;;
4867;SDS011;2448;48.086;10.862;2022-07-18T04:48:21;8.20;;;4.83;;
4867;SDS011;2448;48.086;10.862;2022-07-18T04:50:47;7.60;;;5.20;;
4867;SDS011;2448;48.086;10.862;2022-07-18T04:53:12;7.60;;;4.77;;
4867;SDS011;2448;48.086;10.862;2022-07-18T04:55:37;6.53;;;5.03;;
4867;SDS011;2448;48.086;10.862;2022-07-18T04:58:03;4.47;;;4.07;;
4867;SDS011;2448;48.086;10.862;2022-07-18T05:00:28;7.10;;;4.80;;
4867;SDS011;2448;48.086;10.862;2022-07-18T05:02:54;4.50;;;4.10;;
4867;SDS011;2448;48.086;10.862;2022-07-18T05:05:21;7.20;;;4.97;;
4867;SDS011;2448;48.086;10.862;2022-07-18T05:07:47;5.00;;;4.50;;
4867;SDS011;2448;48.086;10.862;2022-07-18T05:10:13;4.37;;;3.97;;
4867;SDS011;2448;48.086;10.862;2022-07-18T05:12:40;4.40;;;4.00;;
4867;SDS011;2448;48.086;10.862;2022-07-18T05:15:07;4.63;;;4.20;;
4867;SDS011;2448;48.086;10.862;2022-07-18T05:17:32;4.60;;;4.20;;
4867;SDS011;2448;48.086;10.862;2022-07-18T05:19:58;5.43;;;4.70;;
4867;SDS011;2448;48.086;10.862;2022-07-18T05:22:23;7.70;;;4.90;;
4867;SDS011;2448;48.086;10.862;2022-07-18T05:24:48;5.17;;;4.27;;
4867;SDS011;2448;48.086;10.862;2022-07-18T05:27:14;7.90;;;5.17;;
4867;SDS011;2448;48.086;10.862;2022-07-18T05:29:39;4.73;;;3.40;;
4867;SDS011;2448;48.086;10.862;2022-07-18T05:32:05;10.10;;;5.10;;
4867;SDS011;2448;48.086;10.862;2022-07-18T05:34:30;10.60;;;3.77;;
4867;SDS011;2448;48.086;10.862;2022-07-18T05:36:55;8.20;;;4.70;;
4867;SDS011;2448;48.086;10.862;2022-07-18T05:39:21;4.20;;;3.90;;
4867;SDS011;2448;48.086;10.862;2022-07-18T05:41:46;5.27;;;4.27;;
4867;SDS011;2448;48.086;10.862;2022-07-18T05:44:11;9.07;;;5.10;;
4867;SDS011;2448;48.086;10.862;2022-07-18T05:46:37;4.70;;;4.30;;
4867;SDS011;2448;48.086;10.862;2022-07-18T05:49:02;6.10;;;3.90;;
4867;SDS011;2448;48.086;10.862;2022-07-18T05:51:28;4.80;;;4.37;;
4867;SDS011;2448;48.086;10.862;2022-07-18T05:53:53;5.80;;;4.60;;
4867;SDS011;2448;48.086;10.862;2022-07-18T05:56:18;4.30;;;3.90;;
4867;SDS011;2448;48.086;10.862;2022-07-18T05:58:44;15.87;;;4.57;;
4867;SDS011;2448;48.086;10.862;2022-07-18T06:01:09;5.70;;;4.73;;
4867;SDS011;2448;48.086;10.862;2022-07-18T06:03:34;11.80;;;3.90;;
4867;SDS011;2448;48.086;10.862;2022-07-18T06:06:00;4.73;;;4.33;;
4867;SDS011;2448;48.086;10.862;2022-07-18T06:08:25;4.10;;;3.77;;
4867;SDS011;2448;48.086;10.862;2022-07-18T06:10:50;6.30;;;4.07;;
4867;SDS011;2448;48.086;10.862;2022-07-18T06:13:16;4.30;;;4.00;;
4867;SDS011;2448;48.086;10.862;2022-07-18T06:15:41;3.70;;;3.40;;
4867;SDS011;2448;48.086;10.862;2022-07-18T06:18:07;4.90;;;3.57;;
4867;SDS011;2448;48.086;10.862;2022-07-18T06:20:32;4.63;;;3.80;;
4867;SDS011;2448;48.086;10.862;2022-07-18T06:22:58;3.93;;;3.50;;
4867;SDS011;2448;48.086;10.862;2022-07-18T06:25:23;4.73;;;4.20;;
4867;SDS011;2448;48.086;10.862;2022-07-18T06:27:48;4.27;;;3.80;;
4867;SDS011;2448;48.086;10.862;2022-07-18T06:30:14;3.80;;;3.40;;
4867;SDS011;2448;48.086;10.862;2022-07-18T06:32:39;4.97;;;3.80;;
4867;SDS011;2448;48.086;10.862;2022-07-18T06:35:05;4.07;;;3.67;;
4867;SDS011;2448;48.086;10.862;2022-07-18T06:37:31;3.60;;;3.30;;
4867;SDS011;2448;48.086;10.862;2022-07-18T06:39:56;3.93;;;3.50;;
4867;SDS011;2448;48.086;10.862;2022-07-18T06:42:22;5.27;;;3.33;;
4867;SDS011;2448;48.086;10.862;2022-07-18T06:44:47;4.87;;;3.70;;
4867;SDS011;2448;48.086;10.862;2022-07-18T06:47:12;3.90;;;3.60;;
4867;SDS011;2448;48.086;10.862;2022-07-18T06:49:38;3.87;;;3.57;;
4867;SDS011;2448;48.086;10.862;2022-07-18T06:52:03;3.73;;;3.43;;
4867;SDS011;2448;48.086;10.862;2022-07-18T06:54:29;3.83;;;3.53;;
4867;SDS011;2448;48.086;10.862;2022-07-18T06:56:55;4.67;;;4.27;;
4867;SDS011;2448;48.086;10.862;2022-07-18T06:59:20;3.97;;;3.60;;
4867;SDS011;2448;48.086;10.862;2022-07-18T07:01:46;3.97;;;3.40;;
4867;SDS011;2448;48.086;10.862;2022-07-18T07:04:11;7.60;;;3.17;;
4867;SDS011;2448;48.086;10.862;2022-07-18T07:06:37;5.00;;;3.50;;
4867;SDS011;2448;48.086;10.862;2022-07-18T07:09:03;7.43;;;3.00;;
4867;SDS011;2448;48.086;10.862;2022-07-18T07:11:29;3.40;;;3.10;;
4867;SDS011;2448;48.086;10.862;2022-07-18T07:13:54;3.00;;;2.80;;
4867;SDS011;2448;48.086;10.862;2022-07-18T07:16:19;5.47;;;2.80;;
4867;SDS011;2448;48.086;10.862;2022-07-18T07:18:45;2.57;;;2.37;;
4867;SDS011;2448;48.086;10.862;2022-07-18T07:21:10;2.70;;;2.60;;
4867;SDS011;2448;48.086;10.862;2022-07-18T07:23:36;3.07;;;2.87;;
4867;SDS011;2448;48.086;10.862;2022-07-18T07:26:01;2.53;;;2.33;;
4867;SDS011;2448;48.086;10.862;2022-07-18T07:28:27;3.10;;;2.90;;
4867;SDS011;2448;48.086;10.862;2022-07-18T07:30:52;9.20;;;3.70;;
4867;SDS011;2448;48.086;10.862;2022-07-18T07:33:18;3.00;;;2.47;;
4867;SDS011;2448;48.086;10.862;2022-07-18T07:35:43;2.80;;;2.60;;
4867;SDS011;2448;48.086;10.862;2022-07-18T07:38:08;4.07;;;3.13;;
4867;SDS011;2448;48.086;10.862;2022-07-18T07:40:35;2.90;;;2.70;;
4867;SDS011;2448;48.086;10.862;2022-07-18T07:43:07;2.97;;;2.57;;
4867;SDS011;2448;48.086;10.862;2022-07-18T07:45:33;2.50;;;2.40;;
4867;SDS011;2448;48.086;10.862;2022-07-18T07:47:59;2.80;;;2.60;;
4867;SDS011;2448;48.086;10.862;2022-07-18T07:50:24;2.80;;;2.60;;
4867;SDS011;2448;48.086;10.862;2022-07-18T07:52:50;2.57;;;2.47;;
4867;SDS011;2448;48.086;10.862;2022-07-18T07:55:15;4.80;;;2.27;;
4867;SDS011;2448;48.086;10.862;2022-07-18T07:57:40;2.90;;;2.10;;
4867;SDS011;2448;48.086;10.862;2022-07-18T08:00:06;2.20;;;2.07;;
4867;SDS011;2448;48.086;10.862;2022-07-18T08:02:37;5.30;;;2.83;;
4867;SDS011;2448;48.086;10.862;2022-07-18T08:05:03;2.40;;;2.30;;
4867;SDS011;2448;48.086;10.862;2022-07-18T08:07:28;4.83;;;2.07;;
4867;SDS011;2448;48.086;10.862;2022-07-18T08:09:53;2.22;;;1.90;;
4867;SDS011;2448;48.086;10.862;2022-07-18T08:12:19;3.95;;;2.17;;
4867;SDS011;2448;48.086;10.862;2022-07-18T08:14:44;1.98;;;1.88;;
4867;SDS011;2448;48.086;10.862;2022-07-18T08:17:10;1.98;;;1.88;;
4867;SDS011;2448;48.086;10.862;2022-07-18T08:19:35;1.55;;;1.55;;
4867;SDS011;2448;48.086;10.862;2022-07-18T08:22:00;4.45;;;1.30;;
4867;SDS011;2448;48.086;10.862;2022-07-18T08:24:26;1.40;;;1.38;;
4867;SDS011;2448;48.086;10.862;2022-07-18T08:26:51;1.55;;;1.55;;
4867;SDS011;2448;48.086;10.862;2022-07-18T08:29:16;4.78;;;1.63;;
4867;SDS011;2448;48.086;10.862;2022-07-18T08:31:42;2.17;;;1.45;;
4867;SDS011;2448;48.086;10.862;2022-07-18T08:34:07;1.15;;;1.15;;
4867;SDS011;2448;48.086;10.862;2022-07-18T08:36:33;1.13;;;1.00;;
4867;SDS011;2448;48.086;10.862;2022-07-18T08:38:58;1.23;;;1.02;;
4867;SDS011;2448;48.086;10.862;2022-07-18T08:41:25;0.80;;;0.80;;
4867;SDS011;2448;48.086;10.862;2022-07-18T08:43:50;0.90;;;0.90;;
4867;SDS011;2448;48.086;10.862;2022-07-18T08:46:18;8.35;;;1.00;;
4867;SDS011;2448;48.086;10.862;2022-07-18T08:48:44;1.23;;;1.23;;
4867;SDS011;2448;48.086;10.862;2022-07-18T08:51:09;1.30;;;1.30;;
4867;SDS011;2448;48.086;10.862;2022-07-18T08:53:35;1.00;;;1.00;;
4867;SDS011;2448;48.086;10.862;2022-07-18T08:56:02;1.08;;;0.88;;
4867;SDS011;2448;48.086;10.862;2022-07-18T08:58:28;2.70;;;1.25;;
4867;SDS011;2448;48.086;10.862;2022-07-18T09:00:54;1.23;;;1.13;;
4867;SDS011;2448;48.086;10.862;2022-07-18T09:03:19;9.60;;;1.00;;
4867;SDS011;2448;48.086;10.862;2022-07-18T09:05:45;0.90;;;0.90;;
4867;SDS011;2448;48.086;10.862;2022-07-18T09:08:15;0.95;;;0.95;;
4867;SDS011;2448;48.086;10.862;2022-07-18T09:13:21;1.10;;;1.10;;
4867;SDS011;2448;48.086;10.862;2022-07-18T09:16:00;1.00;;;1.00;;
4867;SDS011;2448;48.086;10.862;2022-07-18T09:18:47;0.93;;;0.93;;
4867;SDS011;2448;48.086;10.862;2022-07-18T09:23:42;0.95;;;0.95;;
4867;SDS011;2448;48.086;10.862;2022-07-18T09:26:08;1.67;;;1.20;;
4867;SDS011;2448;48.086;10.862;2022-07-18T09:29:07;0.75;;;0.75;;
4867;SDS011;2448;48.086;10.862;2022-07-18T09:31:25;1.08;;;1.08;;
4867;SDS011;2448;48.086;10.862;2022-07-18T09:33:51;0.90;;;0.90;;
4867;SDS011;2448;48.086;10.862;2022-07-18T09:36:17;1.00;;;1.00;;
4867;SDS011;2448;48.086;10.862;2022-07-18T09:38:42;1.08;;;1.08;;
4867;SDS011;2448;48.086;10.862;2022-07-18T09:41:10;1.98;;;0.95;;
4867;SDS011;2448;48.086;10.862;2022-07-18T09:43:36;1.48;;;1.10;;
4867;SDS011;2448;48.086;10.862;2022-07-18T09:46:03;2.25;;;1.10;;
4867;SDS011;2448;48.086;10.862;2022-07-18T09:48:28;1.00;;;1.00;;
4867;SDS011;2448;48.086;10.862;2022-07-18T09:55:53;1.00;;;1.00;;
4867;SDS011;2448;48.086;10.862;2022-07-18T09:58:19;1.20;;;1.20;;
4867;SDS011;2448;48.086;10.862;2022-07-18T10:00:46;13.25;;;1.20;;
4867;SDS011;2448;48.086;10.862;2022-07-18T10:03:11;1.20;;;1.20;;
4867;SDS011;2448;48.086;10.862;2022-07-18T10:05:38;1.52;;;1.42;;
4867;SDS011;2448;48.086;10.862;2022-07-18T10:08:08;1.42;;;1.10;;
4867;SDS011;2448;48.086;10.862;2022-07-18T10:10:34;1.08;;;1.08;;
4867;SDS011;2448;48.086;10.862;2022-07-18T10:13:00;1.20;;;1.20;;
4867;SDS011;2448;48.086;10.862;2022-07-18T10:15:27;0.90;;;0.90;;
4867;SDS011;2448;48.086;10.862;2022-07-18T10:17:53;1.92;;;1.35;;
4867;SDS011;2448;48.086;10.862;2022-07-18T10:20:24;1.10;;;1.10;;
4867;SDS011;2448;48.086;10.862;2022-07-18T10:22:50;1.13;;;1.13;;
4867;SDS011;2448;48.086;10.862;2022-07-18T10:25:18;1.20;;;1.20;;
4867;SDS011;2448;48.086;10.862;2022-07-18T10:32:54;1.10;;;1.10;;
4867;SDS011;2448;48.086;10.862;2022-07-18T10:35:20;1.20;;;1.10;;
4867;SDS011;2448;48.086;10.862;2022-07-18T10:38:20;1.05;;;1.00;;
4867;SDS011;2448;48.086;10.862;2022-07-18T10:41:00;1.50;;;1.40;;
4867;SDS011;2448;48.086;10.862;2022-07-18T10:45:55;1.27;;;1.17;;
4867;SDS011;2448;48.086;10.862;2022-07-18T10:50:59;3.50;;;1.27;;
4867;SDS011;2448;48.086;10.862;2022-07-18T10:53:24;1.17;;;1.17;;
4867;SDS011;2448;48.086;10.862;2022-07-18T10:56:09;8.65;;;1.10;;
4867;SDS011;2448;48.086;10.862;2022-07-18T10:58:37;4.90;;;1.00;;
4867;SDS011;2448;48.086;10.862;2022-07-18T11:01:03;1.00;;;1.00;;
4867;SDS011;2448;48.086;10.862;2022-07-18T11:03:30;1.00;;;1.00;;
4867;SDS011;2448;48.086;10.862;2022-07-18T11:05:56;1.15;;;1.08;;
4867;SDS011;2448;48.086;10.862;2022-07-18T11:08:22;0.80;;;0.80;;
4867;SDS011;2448;48.086;10.862;2022-07-18T11:18:21;3.15;;;1.08;;
4867;SDS011;2448;48.086;10.862;2022-07-18T11:20:46;1.10;;;1.10;;
4867;SDS011;2448;48.086;10.862;2022-07-18T11:23:19;1.63;;;1.10;;
4867;SDS011;2448;48.086;10.862;2022-07-18T11:25:49;0.98;;;0.98;;
4867;SDS011;2448;48.086;10.862;2022-07-18T11:28:15;0.98;;;0.98;;
4867;SDS011;2448;48.086;10.862;2022-07-18T11:30:41;0.98;;;0.98;;
4867;SDS011;2448;48.086;10.862;2022-07-18T11:33:18;2.28;;;1.20;;
4867;SDS011;2448;48.086;10.862;2022-07-18T11:35:45;0.90;;;0.90;;
4867;SDS011;2448;48.086;10.862;2022-07-18T11:38:10;3.33;;;1.00;;
4867;SDS011;2448;48.086;10.862;2022-07-18T11:40:45;1.00;;;1.00;;
4867;SDS011;2448;48.086;10.862;2022-07-18T11:43:11;1.42;;;1.08;;
4867;SDS011;2448;48.086;10.862;2022-07-18T11:45:36;1.00;;;1.00;;
4867;SDS011;2448;48.086;10.862;2022-07-18T11:48:02;0.95;;;0.95;;
4867;SDS011;2448;48.086;10.862;2022-07-18T11:50:34;0.95;;;0.95;;
4867;SDS011;2448;48.086;10.862;2022-07-18T11:53:00;1.10;;;1.10;;
4867;SDS011;2448;48.086;10.862;2022-07-18T11:55:32;1.25;;;0.93;;
4867;SDS011;2448;48.086;10.862;2022-07-18T11:58:05;1.00;;;1.00;;
4867;SDS011;2448;48.086;10.862;2022-07-18T12:00:30;1.05;;;1.05;;
4867;SDS011;2448;48.086;10.862;2022-07-18T12:05:34;1.10;;;1.10;;
4867;SDS011;2448;48.086;10.862;2022-07-18T12:08:00;2.25;;;1.10;;
4867;SDS011;2448;48.086;10.862;2022-07-18T12:10:25;4.82;;;1.20;;
4867;SDS011;2448;48.086;10.862;2022-07-18T12:12:51;1.38;;;1.27;;
4867;SDS011;2448;48.086;10.862;2022-07-18T12:15:16;1.27;;;1.27;;
4867;SDS011;2448;48.086;10.862;2022-07-18T12:17:43;1.00;;;1.00;;
4867;SDS011;2448;48.086;10.862;2022-07-18T12:20:16;1.05;;;1.00;;
4867;SDS011;2448;48.086;10.862;2022-07-18T12:25:37;1.00;;;1.00;;
4867;SDS011;2448;48.086;10.862;2022-07-18T12:28:15;1.38;;;1.38;;
4867;SDS011;2448;48.086;10.862;2022-07-18T12:30:41;1.38;;;1.30;;
4867;SDS011;2448;48.086;10.862;2022-07-18T12:33:07;1.23;;;1.23;;
4867;SDS011;2448;48.086;10.862;2022-07-18T12:35:33;1.88;;;1.20;;
4867;SDS011;2448;48.086;10.862;2022-07-18T12:38:01;1.75;;;1.65;;
4867;SDS011;2448;48.086;10.862;2022-07-18T12:40:44;2.97;;;1.00;;
4867;SDS011;2448;48.086;10.862;2022-07-18T12:43:43;1.00;;;1.00;;
4867;SDS011;2448;48.086;10.862;2022-07-18T12:46:04;1.30;;;1.30;;
4867;SDS011;2448;48.086;10.862;2022-07-18T12:48:31;0.90;;;0.90;;
4867;SDS011;2448;48.086;10.862;2022-07-18T12:53:23;7.63;;;1.30;;
4867;SDS011;2448;48.086;10.862;2022-07-18T12:55:49;1.48;;;1.38;;
4867;SDS011;2448;48.086;10.862;2022-07-18T12:58:14;1.05;;;1.05;;
4867;SDS011;2448;48.086;10.862;2022-07-18T13:00:40;10.98;;;2.33;;
4867;SDS011;2448;48.086;10.862;2022-07-18T13:03:05;1.80;;;1.70;;
4867;SDS011;2448;48.086;10.862;2022-07-18T13:05:31;2.17;;;1.40;;
4867;SDS011;2448;48.086;10.862;2022-07-18T13:07:56;1.42;;;1.40;;
4867;SDS011;2448;48.086;10.862;2022-07-18T13:10:22;1.25;;;1.05;;
4867;SDS011;2448;48.086;10.862;2022-07-18T13:12:47;2.47;;;1.00;;
4867;SDS011;2448;48.086;10.862;2022-07-18T13:15:13;2.60;;;1.27;;
4867;SDS011;2448;48.086;10.862;2022-07-18T13:17:38;1.05;;;1.05;;
4867;SDS011;2448;48.086;10.862;2022-07-18T13:20:03;3.92;;;1.00;;
4867;SDS011;2448;48.086;10.862;2022-07-18T13:22:30;1.50;;;1.40;;
4867;SDS011;2448;48.086;10.862;2022-07-18T13:25:06;2.47;;;1.23;;
4867;SDS011;2448;48.086;10.862;2022-07-18T13:27:31;1.40;;;1.40;;
4867;SDS011;2448;48.086;10.862;2022-07-18T13:29:57;1.67;;;1.30;;
4867;SDS011;2448;48.086;10.862;2022-07-18T13:32:22;2.00;;;1.42;;
4867;SDS011;2448;48.086;10.862;2022-07-18T13:34:48;1.75;;;1.15;;
4867;SDS011;2448;48.086;10.862;2022-07-18T13:37:13;1.08;;;1.08;;
4867;SDS011;2448;48.086;10.862;2022-07-18T13:39:38;1.38;;;1.38;;
4867;SDS011;2448;48.086;10.862;2022-07-18T13:42:04;1.30;;;1.30;;
4867;SDS011;2448;48.086;10.862;2022-07-18T13:44:30;1.50;;;1.40;;
4867;SDS011;2448;48.086;10.862;2022-07-18T13:46:56;2.10;;;1.30;;
4867;SDS011;2448;48.086;10.862;2022-07-18T13:49:21;1.33;;;1.20;;
4867;SDS011;2448;48.086;10.862;2022-07-18T13:51:47;1.60;;;1.33;;
4867;SDS011;2448;48.086;10.862;2022-07-18T13:54:12;4.97;;;1.40;;
4867;SDS011;2448;48.086;10.862;2022-07-18T13:56:42;0.93;;;0.93;;
4867;SDS011;2448;48.086;10.862;2022-07-18T13:59:07;1.27;;;1.27;;
4867;SDS011;2448;48.086;10.862;2022-07-18T14:01:33;1.50;;;1.40;;
4867;SDS011;2448;48.086;10.862;2022-07-18T14:03:58;1.10;;;1.10;;
4867;SDS011;2448;48.086;10.862;2022-07-18T14:06:24;1.20;;;1.10;;
4867;SDS011;2448;48.086;10.862;2022-07-18T14:08:49;1.30;;;1.30;;
4867;SDS011;2448;48.086;10.862;2022-07-18T14:11:14;1.10;;;1.10;;
4867;SDS011;2448;48.086;10.862;2022-07-18T14:13:40;2.13;;;1.50;;
4867;SDS011;2448;48.086;10.862;2022-07-18T14:16:05;1.08;;;1.02;;
4867;SDS011;2448;48.086;10.862;2022-07-18T14:18:31;1.67;;;1.58;;
4867;SDS011;2448;48.086;10.862;2022-07-18T14:20:56;1.05;;;1.05;;
4867;SDS011;2448;48.086;10.862;2022-07-18T14:23:21;1.30;;;1.30;;
4867;SDS011;2448;48.086;10.862;2022-07-18T14:25:47;1.30;;;1.30;;
4867;SDS011;2448;48.086;10.862;2022-07-18T14:28:12;1.38;;;1.38;;
4867;SDS011;2448;48.086;10.862;2022-07-18T14:30:38;1.60;;;1.50;;
4867;SDS011;2448;48.086;10.862;2022-07-18T14:33:03;1.63;;;1.10;;
4867;SDS011;2448;48.086;10.862;2022-07-18T14:35:29;5.75;;;1.50;;
4867;SDS011;2448;48.086;10.862;2022-07-18T14:37:54;1.23;;;1.23;;
4867;SDS011;2448;48.086;10.862;2022-07-18T14:40:19;1.13;;;1.13;;
4867;SDS011;2448;48.086;10.862;2022-07-18T14:42:45;3.00;;;1.20;;
4867;SDS011;2448;48.086;10.862;2022-07-18T14:45:10;3.45;;;1.48;;
4867;SDS011;2448;48.086;10.862;2022-07-18T14:47:36;7.43;;;1.40;;
4867;SDS011;2448;48.086;10.862;2022-07-18T14:50:04;1.85;;;1.00;;
4867;SDS011;2448;48.086;10.862;2022-07-18T14:52:31;2.10;;;1.25;;
4867;SDS011;2448;48.086;10.862;2022-07-18T14:54:56;1.80;;;0.95;;
4867;SDS011;2448;48.086;10.862;2022-07-18T14:57:21;1.42;;;1.33;;
4867;SDS011;2448;48.086;10.862;2022-07-18T14:59:47;1.27;;;1.27;;
4867;SDS011;2448;48.086;10.862;2022-07-18T15:02:12;1.25;;;1.25;;
4867;SDS011;2448;48.086;10.862;2022-07-18T15:04:39;2.95;;;1.70;;
4867;SDS011;2448;48.086;10.862;2022-07-18T15:07:05;1.95;;;1.25;;
4867;SDS011;2448;48.086;10.862;2022-07-18T15:09:30;11.27;;;1.38;;
4867;SDS011;2448;48.086;10.862;2022-07-18T15:11:56;3.10;;;1.20;;
4867;SDS011;2448;48.086;10.862;2022-07-18T15:14:21;1.38;;;1.38;;
4867;SDS011;2448;48.086;10.862;2022-07-18T15:16:46;1.63;;;1.52;;
4867;SDS011;2448;48.086;10.862;2022-07-18T15:19:12;1.40;;;1.40;;
4867;SDS011;2448;48.086;10.862;2022-07-18T15:21:37;4.35;;;1.40;;
4867;SDS011;2448;48.086;10.862;2022-07-18T15:24:03;1.67;;;1.58;;
4867;SDS011;2448;48.086;10.862;2022-07-18T15:26:28;1.65;;;1.48;;
4867;SDS011;2448;48.086;10.862;2022-07-18T15:28:53;1.90;;;1.77;;
4867;SDS011;2448;48.086;10.862;2022-07-18T15:31:19;1.33;;;1.33;;